This is the latest recevied weather packets stored in our database for station/object PY2RMF-10. If no packets are shown the sender has not sent any weather packets the latest 1 day(s).
| Time | Temp. | Humidity | Pressure | Rain* | Wind** | Luminosity | Snow |
|---|---|---|---|---|---|---|---|
| 1777992518 | 34.44° C | 42% | 1008 hPa | - | 0.89 m/s, 95° | - | - |
| 1777992511 | 34.44° C | 43% | 1008 hPa | - | 0.89 m/s, 95° | - | - |
| 1777990716 | 30.56° C | 54% | 1009 hPa | - | 0.89 m/s, 95° | - | - |
| 1777990711 | 30.56° C | 55% | 1009 hPa | - | 0.89 m/s, 95° | - | - |
| 1777988912 | 29.44° C | 60% | 1009 hPa | - | 0.89 m/s, 95° | - | - |
| 1777987111 | 27.78° C | 66% | 1009 hPa | - | 0.89 m/s, 95° | - | - |
| 1777985311 | 26.67° C | 76% | 1009 hPa | - | 0.89 m/s, 95° | - | - |
| 1777983511 | 24.44° C | 84% | 1009 hPa | - | 0.89 m/s, 95° | - | - |
| 1777981711 | 23.89° C | 88% | 1009 hPa | - | 0.89 m/s, 95° | - | - |
| 1777979911 | 23.89° C | 87% | 1009 hPa | - | 0.89 m/s, 95° | - | - |
| 1777978112 | 22.78° C | 93% | 1009 hPa | - | 0.89 m/s, 95° | - | - |
| 1777976311 | 21.67° C | 100% | 1008 hPa | - | 0.89 m/s, 95° | - | - |
| 1777974511 | 21.11° C | 100% | 1008 hPa | - | 0.89 m/s, 95° | - | - |
| 1777972711 | 21.11° C | 100% | 1008 hPa | - | 0.89 m/s, 95° | - | - |
| 1777970911 | 21.11° C | 100% | 1007 hPa | - | 0.89 m/s, 95° | - | - |
| 1777969111 | 21.11° C | 100% | 1007 hPa | - | 0.89 m/s, 95° | - | - |
| 1777967312 | 21.11° C | 100% | 1007 hPa | - | 0.89 m/s, 95° | - | - |
| 1777965511 | 21.11° C | 100% | 1007 hPa | - | 0.89 m/s, 95° | - | - |
| 1777963711 | 21.11° C | 100% | 1007 hPa | - | 0.89 m/s, 95° | - | - |
| 1777961911 | 21.67° C | 100% | 1007 hPa | - | 0.89 m/s, 95° | - | - |
| 1777960112 | 22.22° C | 98% | 1007 hPa | - | 0.89 m/s, 95° | - | - |
| 1777958311 | 22.22° C | 98% | 1007 hPa | - | 0.89 m/s, 95° | - | - |
| 1777956511 | 22.22° C | 99% | 1007 hPa | - | 0.89 m/s, 95° | - | - |
| 1777954711 | 22.22° C | 99% | 1008 hPa | - | 0.89 m/s, 95° | - | - |
| 1777952911 | 22.22° C | 99% | 1008 hPa | - | 0.89 m/s, 95° | - | - |
* Rain since midnight (hover to see other rain measurements)
** Current wind speed in m/s (hover to see current wind gust speed)